Time;durP1;ratioP1;P1;durP2;ratioP2;P2;SDS_P1;SDS_P2;PMS_P1;PMS_P2;Temp;Humidity;BMP_temperature;BMP_pressure;BME280_temperature;BME280_humidity;BME280_pressure;Samples;Min_cycle;Max_cycle;Signal;HPM_P1;HPM_P2
2024/02/28 00:00:21;;;;;;;17.47;11.93;;;5.50;99.90;;;-141.84;94.93;81526.28;5088485;28;20903;-66
2024/02/28 00:02:53;;;;;;;18.23;11.67;;;5.50;99.90;;;-141.84;98.17;89990.66;5090936;28;20219;-62
2024/02/28 00:05:21;;;;;;;18.00;11.67;;;5.40;99.90;;;-141.84;100.00;98472.84;5090341;28;20227;-62
2024/02/28 00:07:50;;;;;;;21.93;12.57;;;5.40;99.90;;;-141.84;100.00;103517.56;5093997;28;20255;-61
2024/02/28 00:10:18;;;;;;;19.47;12.97;;;5.40;99.90;;;-141.84;100.00;97942.19;5082576;28;20238;-61
2024/02/28 00:12:46;;;;;;;21.37;13.33;;;5.40;99.90;;;-141.84;98.63;93964.47;5089520;28;20223;-61
2024/02/28 00:15:15;;;;;;;17.20;12.70;;;5.40;99.90;;;-141.84;94.52;82583.34;5089686;28;20306;-61
2024/02/28 00:17:45;;;;;;;20.97;12.00;;;5.50;99.90;;;-141.84;95.34;82583.34;5089772;28;20222;-61
2024/02/28 00:20:15;;;;;;;17.87;11.63;;;5.40;99.90;;;-141.84;94.83;82583.34;5089363;28;20199;-61
2024/02/28 00:22:44;;;;;;;20.87;13.23;;;5.50;99.90;;;-141.84;93.89;79941.19;5091753;28;20537;-60
2024/02/28 00:25:13;;;;;;;20.40;12.40;;;5.50;99.90;;;-141.84;93.47;76508.97;5088591;28;20251;-60
2024/02/28 00:27:42;;;;;;;18.43;12.67;;;5.50;99.90;;;-141.84;95.18;82847.66;5092640;28;20609;-61
2024/02/28 00:30:11;;;;;;;18.67;12.07;;;5.40;99.90;;;-141.84;94.12;79941.19;5091713;28;20223;-62
2024/02/28 00:32:39;;;;;;;20.27;12.80;;;5.40;99.90;;;-141.84;94.12;79677.06;5092962;28;20686;-61
2024/02/28 00:35:09;;;;;;;18.73;12.60;;;5.40;99.90;;;-141.84;94.73;81262.06;5092979;28;20202;-62
2024/02/28 00:37:38;;;;;;;18.93;12.53;;;5.40;99.90;;;-141.84;94.56;79412.97;5094761;28;20208;-61
2024/02/28 00:40:10;;;;;;;20.17;12.43;;;5.40;99.90;;;-141.84;93.72;78092.72;5094902;28;20219;-59
2024/02/28 00:42:38;;;;;;;18.07;13.37;;;5.40;99.90;;;-141.84;91.39;69653.38;5095318;28;20235;-62
2024/02/28 00:45:10;;;;;;;19.93;12.57;;;5.50;99.90;;;-141.84;91.62;69389.94;5093232;28;20219;-60
2024/02/28 00:47:40;;;;;;;19.00;12.57;;;5.50;99.90;;;-141.84;92.14;72025.13;5095293;28;20223;-59
2024/02/28 00:50:09;;;;;;;19.33;13.50;;;5.50;99.90;;;-141.84;94.51;78884.81;5093884;28;20187;-59
2024/02/28 00:52:39;;;;;;;20.30;12.77;;;5.40;99.90;;;-141.84;96.50;85756.25;5093960;28;20247;-60
2024/02/28 00:55:08;;;;;;;20.80;13.40;;;5.30;99.90;;;-141.84;97.44;90255.47;5094533;28;20216;-60
2024/02/28 00:57:37;;;;;;;19.87;13.03;;;5.30;99.90;;;-141.84;96.18;85491.75;5084059;28;20326;-60
2024/02/28 01:00:09;;;;;;;18.60;12.70;;;5.30;99.90;;;-141.84;95.72;84169.50;5092825;28;20226;-60
2024/02/28 01:02:38;;;;;;;16.53;11.50;;;5.20;99.90;;;-141.84;95.13;82319.06;5092628;28;20577;-60
2024/02/28 01:05:07;;;;;;;19.40;12.50;;;5.30;99.90;;;-141.84;94.06;79148.88;5093417;28;20261;-60
2024/02/28 01:07:35;;;;;;;18.93;13.17;;;5.30;99.90;;;-141.84;94.49;79412.97;5092964;28;20323;-61
2024/02/28 01:10:08;;;;;;;19.60;13.10;;;5.30;99.90;;;-141.84;94.51;80733.66;5093042;28;20250;-62
2024/02/28 01:12:36;;;;;;;20.33;12.93;;;5.30;99.90;;;-141.84;94.79;81526.28;5057196;28;20653;-60
2024/02/28 01:15:10;;;;;;;21.13;13.27;;;5.30;99.90;;;-141.84;97.11;87343.63;5092044;28;20227;-60
2024/02/28 01:17:38;;;;;;;21.27;13.23;;;5.30;99.90;;;-141.84;94.54;82583.34;5092991;28;20711;-60
2024/02/28 01:20:12;;;;;;;19.00;12.63;;;5.40;99.90;;;-141.84;93.01;73870.81;5092883;28;20196;-60
2024/02/28 01:22:40;;;;;;;16.50;11.83;;;5.40;99.90;;;-141.84;94.63;80733.66;5092322;28;20199;-60
2024/02/28 01:25:10;;;;;;;17.83;11.70;;;5.40;99.90;;;-141.84;95.94;84433.91;5093180;28;20247;-60
2024/02/28 01:27:39;;;;;;;17.63;11.20;;;5.30;99.90;;;-141.84;97.23;88666.94;5093114;28;20310;-60
2024/02/28 01:30:09;;;;;;;18.77;12.70;;;5.30;99.90;;;-141.84;98.12;91314.81;5093599;28;20227;-60
2024/02/28 01:32:38;;;;;;;17.97;12.30;;;5.30;99.90;;;-141.84;96.85;87608.25;5093572;28;20276;-60
2024/02/28 01:35:10;;;;;;;17.27;12.67;;;5.30;99.90;;;-141.84;96.81;88137.56;5092812;28;20191;-59
2024/02/28 01:37:38;;;;;;;18.77;12.50;;;5.30;99.90;;;-141.84;95.99;85756.25;5084543;28;20196;-60
2024/02/28 01:40:11;;;;;;;18.20;11.97;;;5.20;99.90;;;-141.84;94.34;80205.34;5091276;28;20310;-61
2024/02/28 01:42:39;;;;;;;16.53;11.77;;;5.30;99.90;;;-141.84;95.13;82319.06;5032656;28;20316;-60
2024/02/28 01:45:13;;;;;;;17.57;11.83;;;5.20;99.90;;;-141.84;95.06;81526.28;5092420;28;20223;-61
2024/02/28 01:47:42;;;;;;;20.27;12.17;;;5.30;99.90;;;-141.84;95.51;83640.72;5093141;28;20224;-59
2024/02/28 01:50:12;;;;;;;16.40;11.77;;;5.30;99.90;;;-141.84;94.71;80205.34;5081086;28;20665;-60
2024/02/28 01:52:41;;;;;;;18.47;13.07;;;5.20;99.90;;;-141.84;94.78;82319.06;5091673;28;20200;-60
2024/02/28 01:55:13;;;;;;;19.13;13.10;;;5.30;99.90;;;-141.84;93.83;78620.75;5091498;28;20215;-62
2024/02/28 01:57:41;;;;;;;19.53;13.30;;;5.30;99.90;;;-141.84;93.61;77036.81;5086873;28;20219;-61
2024/02/28 02:00:12;;;;;;;19.50;12.83;;;5.50;99.90;;;-141.84;92.72;73079.69;5092146;28;20226;-61
2024/02/28 02:02:41;;;;;;;20.43;13.80;;;5.30;99.90;;;-141.84;93.82;78092.72;5091876;28;20226;-61
2024/02/28 02:05:12;;;;;;;19.27;13.50;;;5.30;99.90;;;-141.84;94.08;78092.72;5091544;28;20302;-62
2024/02/28 02:07:41;;;;;;;23.00;14.10;;;5.30;99.90;;;-141.84;95.01;81790.53;5092032;28;20649;-61
2024/02/28 02:10:12;;;;;;;22.03;14.27;;;5.30;99.90;;;-141.84;93.40;76508.97;5092008;28;20251;-60
2024/02/28 02:12:40;;;;;;;21.13;13.67;;;5.20;99.90;;;-141.84;94.18;78356.72;5091961;28;20216;-63
2024/02/28 02:15:09;;;;;;;20.17;13.37;;;5.20;99.90;;;-141.84;94.63;81262.06;5092045;28;20221;-59
2024/02/28 02:17:37;;;;;;;20.00;13.77;;;5.30;99.90;;;-141.84;94.97;81262.06;5091694;28;20247;-59
2024/02/28 02:20:12;;;;;;;20.90;13.90;;;5.30;99.90;;;-141.84;95.54;83376.34;5091621;28;20237;-59
2024/02/28 02:22:42;;;;;;;21.27;14.20;;;5.20;99.90;;;-141.84;95.42;83112.00;5090901;28;20199;-59
2024/02/28 02:25:10;;;;;;;23.43;14.93;;;5.20;99.90;;;-141.84;93.27;77564.72;5091931;28;20223;-60
2024/02/28 02:27:39;;;;;;;23.40;15.00;;;5.30;99.90;;;-141.84;92.26;71234.38;5092461;28;20230;-59
2024/02/28 02:30:08;;;;;;;21.63;14.30;;;5.20;99.90;;;-141.84;93.74;77036.81;5091451;28;20227;-59
2024/02/28 02:32:36;;;;;;;22.07;14.03;;;5.20;99.90;;;-141.84;91.21;68863.09;5089955;28;20741;-59
2024/02/28 02:35:08;;;;;;;22.73;14.80;;;5.20;99.90;;;-141.84;92.25;71234.38;5090092;28;20184;-60
2024/02/28 02:37:38;;;;;;;21.80;15.17;;;5.20;99.90;;;-141.84;91.32;69126.50;5039649;28;20192;-60
2024/02/28 02:40:10;;;;;;;22.43;15.27;;;5.30;99.90;;;-141.84;91.06;67809.63;5091244;28;20246;-60
2024/02/28 02:42:38;;;;;;;24.47;15.57;;;5.20;99.90;;;-141.84;91.46;67809.63;5092462;28;20219;-59
2024/02/28 02:45:07;;;;;;;21.20;14.10;;;5.20;99.90;;;-141.84;88.74;56239.94;5090068;28;20564;-60
2024/02/28 02:47:36;;;;;;;23.27;15.23;;;5.20;99.90;;;-141.84;86.64;43918.63;5091171;28;20266;-60
2024/02/28 02:50:06;;;;;;;22.33;14.60;;;5.30;99.90;;;-141.84;85.74;34039.81;5090405;28;20196;-61
2024/02/28 02:52:34;;;;;;;21.20;14.47;;;5.20;99.90;;;-141.84;87.90;49157.03;5091517;28;20231;-60
2024/02/28 02:55:03;;;;;;;22.93;14.13;;;5.20;99.90;;;-141.84;88.33;51254.38;5089163;28;20301;-60
2024/02/28 02:57:33;;;;;;;23.70;15.57;;;5.20;99.90;;;-141.84;86.50;42871.75;5090843;28;20899;-61
2024/02/28 03:00:01;;;;;;;24.20;15.30;;;5.10;99.90;;;-141.84;86.85;42871.75;5091326;28;20307;-61
2024/02/28 03:02:29;;;;;;;21.93;14.97;;;5.20;99.90;;;-141.84;86.81;44180.38;5090652;28;20237;-60
2024/02/28 03:04:57;;;;;;;22.87;14.63;;;5.10;99.90;;;-141.84;86.69;42086.81;5091198;28;20250;-61
2024/02/28 03:07:29;;;;;;;24.20;15.47;;;5.10;99.90;;;-141.84;84.77;28373.34;5091726;28;20908;-60
2024/02/28 03:09:58;;;;;;;23.27;15.23;;;5.10;99.90;;;-141.84;85.50;31590.81;5036246;28;20251;-60
2024/02/28 03:12:28;;;;;;;22.37;15.30;;;5.10;99.90;;;-141.84;87.26;44965.75;5091142;28;20292;-60
2024/02/28 03:14:58;;;;;;;25.73;15.63;;;5.10;99.90;;;-141.84;88.04;49681.28;5091475;28;20222;-61
2024/02/28 03:17:30;;;;;;;24.37;16.23;;;5.00;99.90;;;-141.84;85.58;33480.97;5089590;28;20234;-59
2024/02/28 03:19:58;;;;;;;22.43;15.00;;;5.10;99.90;;;-141.84;84.76;29634.34;5091536;28;20277;-60
2024/02/28 03:22:31;;;;;;;24.47;15.97;;;5.20;99.90;;;-141.84;84.76;29023.16;5092234;28;20249;-60
2024/02/28 03:25:00;;;;;;;22.23;14.93;;;5.10;99.90;;;-141.84;86.95;42086.81;5091554;28;20310;-59
2024/02/28 03:27:28;;;;;;;22.17;14.20;;;5.00;99.90;;;-141.84;87.48;48632.88;5091078;28;20631;-60
2024/02/28 03:29:57;;;;;;;22.07;14.87;;;5.00;99.90;;;-141.84;84.08;25793.56;5090191;28;20231;-60
2024/02/28 03:32:26;;;;;;;21.67;14.83;;;5.10;99.90;;;-141.84;84.78;29157.63;5090570;28;20216;-60
2024/02/28 03:34:54;;;;;;;20.47;14.00;;;5.00;99.90;;;-141.84;85.33;30958.94;5090690;28;20227;-58
2024/02/28 03:37:22;;;;;;;21.77;14.27;;;5.00;99.90;;;-141.84;86.58;39024.09;5090617;28;20306;-60
2024/02/28 03:39:52;;;;;;;22.77;14.50;;;4.80;99.90;;;-141.84;87.86;48632.88;5091492;28;20285;-62
2024/02/28 03:42:20;;;;;;;23.73;15.40;;;4.90;99.90;;;-141.84;85.91;37557.97;5090745;28;20607;-60
2024/02/28 03:44:52;;;;;;;21.37;14.17;;;4.90;99.90;;;-141.84;85.95;36004.63;5089811;28;20227;-60
2024/02/28 03:47:21;;;;;;;21.40;15.07;;;5.00;99.90;;;-141.84;87.48;44965.75;5082293;28;20243;-61
2024/02/28 03:49:49;;;;;;;23.53;14.83;;;5.00;99.90;;;-141.84;88.61;52828.09;5090513;28;20657;-59
2024/02/28 03:52:18;;;;;;;21.87;14.07;;;4.90;99.90;;;-141.84;89.23;57027.72;5091192;28;20645;-61
2024/02/28 03:54:47;;;;;;;22.60;15.00;;;5.00;99.90;;;-141.84;89.07;55452.34;5090987;28;20319;-60
2024/02/28 03:57:15;;;;;;;20.33;14.33;;;4.90;99.90;;;-141.84;89.12;56765.13;5089820;28;20219;-59
2024/02/28 03:59:43;;;;;;;22.40;14.70;;;4.90;99.90;;;-141.84;88.72;54402.44;5090258;28;20222;-59
2024/02/28 04:02:12;;;;;;;23.67;15.53;;;4.80;99.90;;;-141.84;85.93;37098.63;5092926;28;20199;-59
2024/02/28 04:04:42;;;;;;;21.43;14.50;;;4.90;99.90;;;-141.84;87.14;42610.09;5093527;28;20267;-59
2024/02/28 04:07:11;;;;;;;20.60;14.70;;;4.90;99.90;;;-141.84;85.53;34498.78;5093318;28;20352;-60
2024/02/28 04:09:39;;;;;;;22.37;14.97;;;4.90;99.90;;;-141.84;85.86;34343.75;5093824;28;20766;-59
2024/02/28 04:12:08;;;;;;;20.50;14.37;;;4.90;99.90;;;-141.84;87.72;46798.88;5093611;28;20597;-59
2024/02/28 04:14:39;;;;;;;20.63;15.00;;;4.80;99.90;;;-141.84;86.88;42610.09;5093785;28;20250;-59
2024/02/28 04:17:16;;;;;;;21.47;14.53;;;4.80;99.90;;;-141.84;88.44;51254.38;5094317;28;20199;-59
2024/02/28 04:19:46;;;;;;;21.57;14.67;;;4.80;99.90;;;-141.84;89.27;56765.13;5088906;28;20184;-61
2024/02/28 04:22:15;;;;;;;21.07;14.87;;;4.70;99.90;;;-141.84;88.16;50467.75;5094254;28;20789;-60
2024/02/28 04:24:43;;;;;;;22.27;14.70;;;4.70;99.90;;;-141.84;88.02;50729.94;5093489;28;20226;-59
2024/02/28 04:27:12;;;;;;;22.23;15.20;;;4.80;99.90;;;-141.84;88.17;49681.28;5094185;28;20269;-58
2024/02/28 04:29:40;;;;;;;21.47;15.33;;;4.70;99.90;;;-141.84;88.83;54402.44;5093612;28;20219;-59
2024/02/28 04:32:08;;;;;;;22.97;15.43;;;4.70;99.90;;;-141.84;88.11;48894.97;5094578;28;20268;-60
2024/02/28 04:34:37;;;;;;;22.67;15.23;;;4.70;99.90;;;-141.84;86.11;37621.25;5093974;28;20204;-59
2024/02/28 04:37:12;;;;;;;24.67;16.40;;;4.80;99.90;;;-141.84;85.50;33617.63;5093319;28;20369;-60
2024/02/28 04:39:40;;;;;;;23.97;15.60;;;4.70;99.90;;;-141.84;86.03;34390.69;5086810;28;20302;-60
2024/02/28 04:42:08;;;;;;;24.80;17.23;;;4.70;99.90;;;-141.84;85.88;37302.78;5093918;28;20227;-60
2024/02/28 04:44:36;;;;;;;29.53;16.63;;;4.70;99.90;;;-141.84;82.45;21057.84;5092900;28;20306;-60
2024/02/28 04:47:06;;;;;;;23.43;16.90;;;4.80;99.90;;;-141.84;84.74;27489.47;5093596;28;20248;-60
2024/02/28 04:49:37;;;;;;;25.27;17.00;;;4.70;99.90;;;-141.84;84.06;25870.91;5092296;28;20279;-59
2024/02/28 04:52:07;;;;;;;25.17;17.37;;;4.70;99.90;;;-141.84;83.72;24189.94;5093443;28;20254;-60
2024/02/28 04:54:35;;;;;;;25.07;16.23;;;4.70;99.90;;;-141.84;81.75;20348.38;5092431;28;20751;-64
2024/02/28 04:57:04;;;;;;;25.00;16.97;;;4.70;99.90;;;-141.84;82.07;20744.78;5093507;28;20654;-60
2024/02/28 04:59:37;;;;;;;27.27;17.20;;;4.80;99.90;;;-141.84;81.96;20610.59;5086191;28;20735;-59
2024/02/28 05:02:06;;;;;;;24.27;17.87;;;4.80;99.90;;;-141.84;80.73;19466.31;5093781;28;20640;-59
2024/02/28 05:04:34;;;;;;;25.97;17.60;;;4.80;99.90;;;-141.84;80.80;19346.44;5092742;28;20280;-60
2024/02/28 05:07:03;;;;;;;25.87;17.40;;;4.90;99.90;;;-141.84;82.01;20193.91;5092438;28;20212;-59
2024/02/28 05:09:33;;;;;;;24.20;17.37;;;4.80;99.90;;;-141.84;83.85;24120.75;5093142;28;20230;-60
2024/02/28 05:12:01;;;;;;;25.87;17.40;;;4.70;99.90;;;-141.84;82.93;22652.03;5092146;28;20227;-59
2024/02/28 05:14:29;;;;;;;25.33;17.33;;;4.60;99.90;;;-141.84;83.63;23656.88;5092489;28;20283;-60
2024/02/28 05:16:57;;;;;;;25.53;16.90;;;4.60;99.90;;;-141.84;82.90;21783.69;5092439;28;20234;-59
2024/02/28 05:19:26;;;;;;;24.67;17.20;;;4.70;99.90;;;-141.84;84.42;25040.50;5091761;28;20253;-59
2024/02/28 05:21:54;;;;;;;23.57;17.23;;;4.70;99.90;;;-141.84;85.00;28862.22;5092377;28;20243;-60
2024/02/28 05:24:22;;;;;;;22.90;16.07;;;4.70;99.90;;;-141.84;84.95;29182.06;5090931;28;20711;-60
2024/02/28 05:26:52;;;;;;;22.13;15.63;;;4.70;99.90;;;-141.84;85.76;32710.13;5083358;28;20246;-61
2024/02/28 05:29:20;;;;;;;28.13;18.10;;;4.70;99.90;;;-141.84;83.49;23868.47;5091917;28;20254;-61
2024/02/28 05:31:48;;;;;;;23.97;15.83;;;4.60;99.90;;;-141.84;83.68;23907.13;5093553;28;20238;-59
2024/02/28 05:34:17;;;;;;;24.50;16.47;;;4.60;99.90;;;-141.84;83.38;23683.34;5092146;28;20288;-60
2024/02/28 05:36:45;;;;;;;20.87;15.33;;;4.70;99.90;;;-141.84;81.56;20051.63;5092131;28;20699;-60
2024/02/28 05:39:14;;;;;;;22.03;16.33;;;4.70;99.90;;;-141.84;80.14;19106.66;5092438;28;20233;-60
2024/02/28 05:41:42;;;;;;;23.40;15.40;;;4.70;99.90;;;-141.84;78.84;18623.06;5091353;28;20219;-59
2024/02/28 05:44:12;;;;;;;22.57;15.47;;;4.70;99.90;;;-141.84;77.78;18462.56;5088575;28;20287;-59
2024/02/28 05:46:41;;;;;;;21.20;14.87;;;4.70;99.90;;;-141.84;78.59;18523.50;5091904;28;20219;-59
2024/02/28 05:49:09;;;;;;;22.90;16.03;;;4.70;99.90;;;-141.84;77.54;18393.47;5090989;28;20247;-60
2024/02/28 05:51:37;;;;;;;23.27;15.80;;;4.70;99.90;;;-141.84;78.73;18566.16;5091268;28;20307;-60
2024/02/28 05:54:06;;;;;;;21.40;14.93;;;4.70;99.90;;;-141.84;79.60;18793.72;5091702;28;20753;-60
2024/02/28 05:56:34;;;;;;;20.90;15.57;;;4.60;99.90;;;-141.84;80.26;19082.25;5092174;28;20303;-61
2024/02/28 05:59:02;;;;;;;26.10;16.83;;;4.60;99.90;;;-141.84;79.29;18757.16;5091069;28;20291;-60
2024/02/28 06:01:33;;;;;;;24.67;17.33;;;4.60;99.90;;;-141.84;79.49;18836.41;5092635;28;20291;-60
2024/02/28 06:04:02;;;;;;;26.70;17.23;;;4.60;99.90;;;-141.84;77.66;18476.78;5090765;28;20219;-60
2024/02/28 06:06:32;;;;;;;24.73;17.20;;;4.70;99.90;;;-141.84;76.70;18310.19;5091690;28;20223;-61
2024/02/28 06:09:00;;;;;;;22.43;15.60;;;4.60;99.90;;;-141.84;75.33;18222.81;5072496;28;20229;-60
2024/02/28 06:11:33;;;;;;;24.37;16.53;;;4.60;99.90;;;-141.84;78.35;18495.06;5071375;28;20781;-60
2024/02/28 06:14:02;;;;;;;22.43;15.87;;;4.60;99.90;;;-141.84;79.49;18761.22;5071981;28;20192;-60
2024/02/28 06:16:32;;;;;;;22.90;15.80;;;4.50;99.90;;;-141.84;78.67;18700.25;5071331;28;20570;-63
2024/02/28 06:19:00;;;;;;;22.87;15.97;;;4.60;99.90;;;-141.84;78.20;18507.25;5070115;28;20259;-59
2024/02/28 06:21:33;;;;;;;23.43;15.37;;;4.60;99.90;;;-141.84;76.26;18320.34;5063177;28;20220;-60
2024/02/28 06:24:01;;;;;;;22.47;15.43;;;4.60;99.90;;;-141.84;76.34;18306.13;5070013;28;20226;-60
2024/02/28 06:26:31;;;;;;;21.03;14.63;;;4.60;99.90;;;-141.84;77.11;18340.66;5070067;28;20276;-59
2024/02/28 06:29:01;;;;;;;22.43;15.53;;;4.60;99.90;;;-141.84;78.43;18574.28;5070231;28;20232;-59
2024/02/28 06:31:31;;;;;;;21.63;14.77;;;4.50;99.90;;;-141.84;77.79;18456.47;5068131;28;20246;-61
2024/02/28 06:34:02;;;;;;;22.03;15.73;;;4.60;99.90;;;-141.84;77.35;18440.22;5069942;28;20228;-60
2024/02/28 06:36:30;;;;;;;23.23;15.77;;;4.60;99.90;;;-141.84;75.30;18251.28;5067260;28;20290;-60
2024/02/28 06:38:59;;;;;;;21.07;15.37;;;4.60;99.90;;;-141.84;74.91;18277.69;5069743;28;20235;-61
2024/02/28 06:41:28;;;;;;;21.57;15.07;;;4.60;99.90;;;-141.84;75.33;18259.41;5070167;28;20240;-59
2024/02/28 06:43:56;;;;;;;20.67;14.67;;;4.60;99.90;;;-141.84;74.98;18241.13;5070663;28;20287;-60
2024/02/28 06:46:24;;;;;;;20.77;14.30;;;4.60;99.90;;;-141.84;74.56;18253.31;5070674;28;20312;-60
2024/02/28 06:48:53;;;;;;;20.77;13.50;;;4.70;99.90;;;-141.84;74.04;18214.69;5068037;28;20281;-60
2024/02/28 06:51:23;;;;;;;19.27;14.00;;;4.60;99.90;;;-141.84;72.75;18186.25;5069956;28;20230;-60
2024/02/28 06:53:51;;;;;;;19.77;13.70;;;4.60;99.90;;;-141.84;72.34;18216.72;5069618;28;20246;-60
2024/02/28 06:56:19;;;;;;;18.33;13.33;;;4.60;99.90;;;-141.84;71.40;18192.34;5070085;28;20778;-60
2024/02/28 06:58:48;;;;;;;18.93;13.60;;;4.60;99.90;;;-141.84;71.43;18182.19;5071508;28;20224;-60
2024/02/28 07:01:16;;;;;;;18.50;12.73;;;4.60;99.90;;;-141.84;70.57;18204.53;5069403;28;20310;-60
2024/02/28 07:03:44;;;;;;;18.80;12.90;;;4.60;99.90;;;-141.84;70.97;18188.28;5069071;28;20212;-60
2024/02/28 07:06:13;;;;;;;18.77;13.47;;;4.60;99.90;;;-141.84;71.38;18182.19;5069183;28;20619;-62
2024/02/28 07:08:43;;;;;;;19.17;13.57;;;4.60;99.90;;;-141.84;71.29;18228.91;5081842;28;20242;-60
2024/02/28 07:11:15;;;;;;;21.83;14.50;;;4.60;99.90;;;-141.84;72.38;18222.81;5089346;28;20644;-60
2024/02/28 07:13:42;;;;;;;18.80;14.27;;;4.70;99.90;;;-141.84;73.49;18265.50;5091478;28;20187;-60
2024/02/28 07:16:11;;;;;;;18.10;12.70;;;4.70;99.90;;;-141.84;72.05;18184.22;5089871;28;20758;-60
2024/02/28 07:18:39;;;;;;;21.60;13.97;;;4.70;99.90;;;-141.84;71.04;18170.00;5090354;28;20726;-59
2024/02/28 07:21:07;;;;;;;19.37;14.17;;;4.80;99.90;;;-141.84;70.95;18241.13;5089799;28;20223;-61
2024/02/28 07:23:36;;;;;;;17.73;12.97;;;4.70;99.90;;;-141.84;72.08;18253.31;5082414;28;20788;-59
2024/02/28 07:26:06;;;;;;;16.43;12.93;;;4.80;99.90;;;-141.84;72.73;18237.06;5090928;28;20245;-60
2024/02/28 07:28:49;;;;;;;17.10;12.50;;;4.70;99.90;;;-141.84;71.89;18222.81;5090862;28;20208;-62
2024/02/28 07:31:18;;;;;;;17.87;13.27;;;4.80;99.90;;;-141.84;70.81;18214.69;5090088;28;20277;-60
2024/02/28 07:33:46;;;;;;;17.57;13.30;;;4.80;99.90;;;-141.84;71.30;18176.09;5089810;28;20248;-63
2024/02/28 07:36:15;;;;;;;18.90;13.47;;;4.80;99.90;;;-141.84;70.91;18210.63;5044146;28;20270;-59
2024/02/28 07:38:43;;;;;;;20.23;14.43;;;4.80;99.90;;;-141.84;70.80;18180.16;5091005;28;20704;-60
2024/02/28 07:41:13;;;;;;;17.83;13.47;;;4.80;99.90;;;-141.84;69.91;18188.28;5093548;28;20252;-60
2024/02/28 07:43:43;;;;;;;18.13;13.40;;;4.80;99.90;;;-141.84;69.70;18222.81;5090932;28;20231;-58
2024/02/28 07:46:12;;;;;;;24.67;16.57;;;4.90;99.90;;;-141.84;67.73;18192.34;5089984;28;20249;-60
2024/02/28 07:48:40;;;;;;;25.30;17.57;;;4.90;99.90;;;-141.84;66.87;18192.34;5088062;28;20740;-60
2024/02/28 07:51:09;;;;;;;27.07;18.50;;;4.90;99.90;;;-141.84;65.95;18243.16;5089579;28;20310;-58
2024/02/28 07:53:37;;;;;;;32.10;20.50;;;4.90;99.90;;;-141.84;64.45;18237.06;5089198;28;20577;-59
2024/02/28 07:56:06;;;;;;;28.50;19.47;;;5.00;99.90;;;-141.84;64.49;18241.13;5089489;28;20232;-60
2024/02/28 07:58:35;;;;;;;27.00;18.83;;;5.00;99.90;;;-141.84;64.24;18259.41;5091077;28;20241;-64
2024/02/28 08:01:04;;;;;;;29.13;17.97;;;5.00;99.90;;;-141.84;64.25;18285.81;5089213;28;20834;-61
2024/02/28 08:03:33;;;;;;;24.97;18.13;;;5.20;99.90;;;-141.84;62.13;18293.94;5081168;28;20227;-61
2024/02/28 08:06:01;;;;;;;26.43;18.00;;;5.30;99.90;;;-141.84;62.51;18257.38;5089672;28;20226;-61
2024/02/28 08:08:30;;;;;;;27.17;18.70;;;5.40;99.90;;;-141.84;61.72;18308.16;5083705;28;20239;-61
2024/02/28 08:10:58;;;;;;;28.40;19.30;;;5.60;99.90;;;-141.84;61.92;18277.69;5088916;28;20224;-60
2024/02/28 08:13:28;;;;;;;27.27;19.60;;;5.70;99.90;;;-141.84;59.24;18328.47;5090286;28;20272;-62
2024/02/28 08:15:58;;;;;;;26.63;18.27;;;5.90;99.90;;;-141.84;59.60;18308.16;5089947;28;20216;-61
2024/02/28 08:18:28;;;;;;;24.67;17.43;;;5.90;99.90;;;-141.84;59.15;18302.06;5090199;28;20239;-60
2024/02/28 08:20:57;;;;;;;25.10;17.70;;;6.00;99.90;;;-141.84;59.43;18350.81;5091630;28;20239;-59
2024/02/28 08:23:26;;;;;;;28.20;18.90;;;6.10;99.90;;;-141.84;58.94;18336.59;5097068;28;20344;-60
2024/02/28 08:25:54;;;;;;;26.20;19.33;;;6.20;99.90;;;-141.84;58.61;18326.44;5090040;28;20200;-60
2024/02/28 08:28:22;;;;;;;24.70;17.83;;;6.20;99.90;;;-141.84;59.02;18306.13;5091187;28;20297;-60
2024/02/28 08:30:51;;;;;;;24.77;18.43;;;6.30;99.90;;;-141.84;59.06;18332.53;5088674;28;20923;-60
2024/02/28 08:33:20;;;;;;;26.63;19.03;;;6.40;99.90;;;-141.84;56.62;18356.91;5085780;28;20327;-61
2024/02/28 08:35:52;;;;;;;25.17;18.27;;;6.40;99.90;;;-141.84;55.64;18385.34;5090913;28;20224;-62
2024/02/28 08:38:20;;;;;;;25.23;19.30;;;6.60;99.90;;;-141.84;54.83;18375.19;5087347;28;20646;-62
2024/02/28 08:40:48;;;;;;;27.83;21.10;;;6.80;99.90;;;-141.84;54.17;18425.97;5092193;28;20200;-63
2024/02/28 08:43:16;;;;;;;25.43;19.57;;;6.80;99.90;;;-141.84;53.94;18430.06;5089112;28;20239;-64
2024/02/28 08:45:45;;;;;;;26.67;19.47;;;6.80;99.90;;;-141.84;54.11;18438.19;5085305;28;20330;-63
2024/02/28 08:48:13;;;;;;;24.57;18.90;;;6.90;99.90;;;-141.84;54.64;18415.81;5083001;28;20217;-64
2024/02/28 08:50:43;;;;;;;26.53;19.50;;;7.00;99.90;;;-141.84;54.67;18470.69;5091487;28;20314;-61
2024/02/28 08:53:11;;;;;;;25.87;19.37;;;7.00;99.90;;;-141.84;54.21;18419.88;5095676;28;20254;-62
2024/02/28 08:55:39;;;;;;;23.87;18.33;;;6.90;99.90;;;-141.84;53.18;18428.03;5094319;28;20207;-61
2024/02/28 08:58:07;;;;;;;27.07;20.47;;;6.90;99.90;;;-141.84;53.37;18480.84;5092109;28;20245;-58
2024/02/28 09:00:36;;;;;;;27.67;20.00;;;6.90;99.90;;;-141.84;52.96;18446.31;5093242;28;20223;-60
2024/02/28 09:03:05;;;;;;;26.77;19.13;;;6.80;99.90;;;-141.84;52.93;18450.38;5092859;28;20307;-57
2024/02/28 09:05:34;;;;;;;24.27;19.83;;;6.80;99.90;;;-141.84;52.97;18468.66;5092113;28;20303;-57
2024/02/28 09:08:04;;;;;;;26.23;19.60;;;6.80;99.90;;;-141.84;53.03;18421.91;5090496;28;20224;-58
2024/02/28 09:10:34;;;;;;;25.43;18.67;;;6.60;99.90;;;-141.84;54.04;18452.41;5092611;28;20222;-62
2024/02/28 09:13:02;;;;;;;28.57;20.13;;;6.60;99.90;;;-141.84;54.88;18413.78;5091676;28;20262;-62
2024/02/28 09:15:31;;;;;;;25.63;19.37;;;6.40;99.90;;;-141.84;54.76;18387.38;5091811;28;20249;-61
2024/02/28 09:18:00;;;;;;;23.40;18.30;;;6.30;99.90;;;-141.84;55.68;18403.63;5091813;28;20239;-61
2024/02/28 09:20:29;;;;;;;24.53;18.97;;;6.10;99.90;;;-141.84;56.35;18403.63;5097623;28;20250;-60
2024/02/28 09:22:57;;;;;;;23.57;17.10;;;6.20;99.90;;;-141.84;55.67;18387.38;5091046;28;21411;-61
2024/02/28 09:25:27;;;;;;;22.27;17.10;;;6.10;99.90;;;-141.84;56.26;18387.38;5092487;28;20225;-60
2024/02/28 09:27:57;;;;;;;19.47;13.70;;;6.10;99.90;;;-141.84;55.94;18395.50;5092011;28;20220;-60
2024/02/28 09:30:26;;;;;;;16.33;13.00;;;6.20;99.90;;;-141.84;55.40;18432.09;5089507;28;20235;-61
2024/02/28 09:33:08;;;;;;;17.07;12.70;;;6.40;99.90;;;-141.84;53.40;18440.22;5085243;28;20222;-61
2024/02/28 09:35:37;;;;;;;18.63;14.23;;;6.80;99.90;;;-141.84;52.04;18476.78;5057514;28;20234;-60
2024/02/28 09:38:05;;;;;;;19.90;14.90;;;7.10;99.90;;;-141.84;51.89;18491.00;5092240;28;20227;-60
2024/02/28 09:40:35;;;;;;;18.57;15.30;;;7.30;99.90;;;-141.84;51.78;18450.38;5093475;28;20199;-61
2024/02/28 09:43:05;;;;;;;22.67;17.50;;;7.20;99.90;;;-141.84;52.06;18476.78;5092664;28;20216;-61
2024/02/28 09:45:35;;;;;;;21.30;16.80;;;7.10;99.90;;;-141.84;52.90;18434.13;5092159;28;20228;-60
2024/02/28 09:48:06;;;;;;;23.60;17.77;;;7.10;99.90;;;-141.84;53.17;18446.31;5092334;28;20265;-61
2024/02/28 09:50:35;;;;;;;18.60;13.90;;;7.10;99.90;;;-141.84;51.66;18523.50;5092155;28;20710;-65
2024/02/28 09:53:03;;;;;;;17.30;13.30;;;7.10;99.90;;;-141.84;51.98;18517.41;5092522;28;20250;-62
2024/02/28 09:55:39;;;;;;;16.23;12.50;;;7.20;99.90;;;-141.84;52.13;18460.53;5092638;28;20227;-62
2024/02/28 09:58:09;;;;;;;19.20;14.27;;;7.20;99.90;;;-141.84;52.64;18499.13;5092136;28;20224;-62
2024/02/28 10:00:39;;;;;;;18.37;14.00;;;7.10;99.90;;;-141.84;52.35;18474.75;5092179;28;20699;-60
2024/02/28 10:03:10;;;;;;;17.80;12.73;;;7.20;99.90;;;-141.84;51.73;18501.16;5092173;28;20224;-61
2024/02/28 10:05:39;;;;;;;16.60;13.00;;;7.20;99.90;;;-141.84;51.84;18493.03;5092018;28;20657;-64
2024/02/28 10:08:09;;;;;;;18.00;13.90;;;7.20;99.90;;;-141.84;51.38;18499.13;5092215;28;20328;-62